WetterOnline ( https://www.wetteronline.de )

Wetter aktuell Putbus/Rügen

Aktuelles Wetter: Putbus/Rügen (41m)

6-stündlich | Neueste Meldungen
Ortszeit Temperatur Wetter
Di, 22.10. 14:00 14.4° C leicht bewölkt
Di, 22.10. 8:00 10.2° C wolkig
Di, 22.10. 2:00 10.1° C Nebel
Mo, 21.10. 20:00 13.1° C wolkig
Mo, 21.10. 14:00 13.7° C bedeckt
Mo, 21.10. 8:00 12.0° C bedeckt
Mo, 21.10. 2:00 11.4° C bewölkt
So, 20.10. 20:00 12.2° C Regen
Ortszeit Temperatur Wetter
Di, 22.10. 16:30 13.7° C bewölkt
Di, 22.10. 16:20 13.7° C bewölkt
Di, 22.10. 16:10 14.0° C bedeckt
Di, 22.10. 16:00 14.3° C bedeckt
Di, 22.10. 15:50 14.3° C bedeckt
Di, 22.10. 15:40 14.3° C bewölkt
Di, 22.10. 15:30 14.0° C bewölkt
Di, 22.10. 15:00 14.2° C bedeckt
Di, 22.10. 14:30 14.1° C leicht bewölkt
Di, 22.10. 14:00 14.4° C leicht bewölkt
Di, 22.10. 13:30 14.6° C wolkenlos
Ortszeit Relative Feuchte Sichtweite
Di, 22.10. 14:00 69% >70 km
Di, 22.10. 8:00 95% 10 km
Di, 22.10. 2:00 99% 0.2 km
Mo, 21.10. 20:00 96% 3.5 km
Mo, 21.10. 14:00 90% 16 km
Mo, 21.10. 8:00 89% 45 km
Mo, 21.10. 2:00 93% 27 km
So, 20.10. 20:00 96% 9 km
Ortszeit Relative Feuchte Sichtweite
Di, 22.10. 16:30 72% 65 km
Di, 22.10. 16:20 72% -
Di, 22.10. 16:10 69% -
Di, 22.10. 16:00 68% 65 km
Di, 22.10. 15:50 68% -
Di, 22.10. 15:40 68% -
Di, 22.10. 15:30 70% >70 km
Di, 22.10. 15:00 70% 65 km
Di, 22.10. 14:30 69% 55 km
Di, 22.10. 14:00 69% >70 km
Di, 22.10. 13:30 70% >70 km
Ortszeit Niederschlagsmenge Niederschlagsart
Di, 22.10. 14:00 0.0 l/m2 in 6 Std. -
Di, 22.10. 8:00 0.1 l/m2 in 12 Std. -
Di, 22.10. 2:00 0.0 l/m2 in 6 Std. -
Mo, 21.10. 20:00 0.1 l/m2 in 12 Std. Regen
Mo, 21.10. 14:00 0.0 l/m2 in 6 Std. -
Mo, 21.10. 8:00 1 l/m2 in 12 Std. Regen
Mo, 21.10. 2:00 1 l/m2 in 6 Std. Regen
So, 20.10. 20:00 2 l/m2 in 12 Std. Regen
Ortszeit Niederschlagsmenge Niederschlagsart
Di, 22.10. 16:30 0.0 l/m2 in 1 Std. -
Di, 22.10. 16:20 keine Meldung -
Di, 22.10. 16:10 keine Meldung -
Di, 22.10. 16:00 0.0 l/m2 in 1 Std. -
Di, 22.10. 15:50 keine Meldung -
Di, 22.10. 15:40 keine Meldung -
Di, 22.10. 15:30 0.0 l/m2 in 1 Std. -
Di, 22.10. 15:00 0.0 l/m2 in 1 Std. -
Di, 22.10. 14:30 0.0 l/m2 in 1 Std. -
Di, 22.10. 14:00 0.0 l/m2 in 1 Std. -
Di, 22.10. 13:30 0.0 l/m2 in 1 Std. -
Ortszeit Stärke Spitze Richtung
km/h Bft. km/h Grad Sektor
Di, 22.10. 14:00 18 3 36 240° SW
Di, 22.10. 8:00 11 2 22 240° SW
Di, 22.10. 2:00 4 1 25 190° S
Mo, 21.10. 20:00 13 3 22 250° W
Mo, 21.10. 14:00 13 3 33 90° O
Mo, 21.10. 8:00 15 3 31 70° O
Mo, 21.10. 2:00 15 3 26 30° NO
So, 20.10. 20:00 6 1 11 350° N
Ortszeit Stärke Spitze Richtung
km/h Bft. km/h Grad Sektor
Di, 22.10. 16:30 20 4 41 260° W
Di, 22.10. 16:20 20 4 - 260° W
Di, 22.10. 16:10 24 4 - 250° W
Di, 22.10. 16:00 22 4 41 250° W
Di, 22.10. 15:50 22 4 - 250° W
Di, 22.10. 15:40 18 3 - 240° SW
Di, 22.10. 15:30 18 3 32 250° W
Di, 22.10. 15:00 18 3 32 250° W
Di, 22.10. 14:30 18 3 32 240° SW
Di, 22.10. 14:00 18 3 36 240° SW
Di, 22.10. 13:30 18 3 32 240° SW
Ortszeit Untergrenze Bedeckung Gattung
total tief tief mittel hoch
Di, 22.10. 14:00 810 m 3/8 3/8 - - -
Di, 22.10. 8:00 1200 m 5/8 5/8 - - -
Di, 22.10. 2:00 <30 m 8/8 0/8 - - -
Mo, 21.10. 20:00 330 m 8/8 1/8 - - -
Mo, 21.10. 14:00 180 m 8/8 8/8 - - -
Mo, 21.10. 8:00 4200 m 8/8 8/8 - - -
Mo, 21.10. 2:00 210 m 7/8 7/8 - - -
So, 20.10. 20:00 630 m 8/8 8/8 - - -
Ortszeit Bedeckungsgrad in Achtel und Wolkenuntergrenze
Di, 22.10. 16:30 4(810m) 7(1050m)
Di, 22.10. 16:20 4(810m) 7(1050m)
Di, 22.10. 16:10 8(1020m)
Di, 22.10. 16:00 8(1050m)
Di, 22.10. 15:50 8(1050m)
Di, 22.10. 15:40 1(840m) 7(1110m)
Di, 22.10. 15:30 7(1020m)
Di, 22.10. 15:00 8(930m)
Di, 22.10. 14:30 1(780m) 4(1020m)
Di, 22.10. 14:00 2(810m) 3(960m)
Di, 22.10. 13:30 keine Wolken
Ortszeit Luftdruck NN (hPa) Tendenz (hPa in 3 Std.)
Di, 22.10. 14:00 1022 - 0,1
Di, 22.10. 8:00 1021 + 0,7
Di, 22.10. 2:00 1020 + 0,7
Mo, 21.10. 20:00 1019 + 1,8
Mo, 21.10. 14:00 1018 + 0,5
Mo, 21.10. 8:00 1017 + 0,6
Mo, 21.10. 2:00 1014 + 0,1
So, 20.10. 20:00 1014 + 1,4
Ortszeit Luftdruck NN (hPa) Tendenz (hPa in 3 Std.)
Di, 22.10. 16:30 1022 + 0,1
Di, 22.10. 16:20 1022 keine Meldung
Di, 22.10. 16:10 1022 keine Meldung
Di, 22.10. 16:00 1022 - 0,3
Di, 22.10. 15:50 1022 keine Meldung
Di, 22.10. 15:40 1022 keine Meldung
Di, 22.10. 15:30 1022 - 0,6
Di, 22.10. 15:00 1022 - 0,3
Di, 22.10. 14:30 1022 - 0,3
Di, 22.10. 14:00 1022 - 0,1
Di, 22.10. 13:30 1022 - 0,1
Ortszeit Schneehöhe (cm)
Di, 22.10. 14:00 0
Di, 22.10. 8:00 0
Di, 22.10. 2:00 0
Mo, 21.10. 20:00 0
Mo, 21.10. 14:00 0
Mo, 21.10. 8:00 0
Mo, 21.10. 2:00 0
So, 20.10. 20:00 0
Ortszeit Schneehöhe (cm)
Di, 22.10. 16:30 0
Di, 22.10. 16:20 0
Di, 22.10. 16:10 0
Di, 22.10. 16:00 0
Di, 22.10. 15:50 0
Di, 22.10. 15:40 0
Di, 22.10. 15:30 0
Di, 22.10. 15:00 0
Di, 22.10. 14:30 0
Di, 22.10. 14:00 0
Di, 22.10. 13:30 0
Link zu dieser Seite / Seite empfehlen

Das Wetter in ...